Hovedside
METAR-TAF:

METAR-TAF

Lufthavner :

Kärdla lufthavn

Kärdla, Estland

breddegrad: 58-59N, lengdegrad: 022-49E, høyde over havet: 5 m

Gjeldene værobservasjon

Denne rapporten ble laget for 1 time og 50 minutter siden, klokken 15:20 UTC
Vind 9 kt fra Nordvest
Temperatur 21°C
Luftfuktighet 56%
Trykk 1017 hPa
Sikt 10 km eller mer
ingen skyer under 1500 m og ingen bygeskyer

METAR: EEKA 241520Z 32009KT CAVOK 21/12 Q1017

Tid: 20:10 (17:10 UTC)

Varsel

Denne rapporten ble laget for 5 timer og 10 minutter siden, klokken 12:00 UTC
Varsel gyldig fra 24. klokken 13 UTC til 24. klokken 19 UTC
Vind 8 kt fra Nord-nordvest
Sikt 10 km eller mer
Spredte skyer i en høyde av 4000 ft

TAF: EEKA 241200Z 2413/2419 34008KT 9999 SCT040

Værobservasjoner og værvarsel for over 4000 flyplasser (METAR- og TAF-rapporter).

Tilgjengelige stasjoner er representert av de røde og gule prikkene på kartet.

Hold musepekeren over prikken for å se navnet på stasjonen.

Klikk så for å se værobservasjoner og -varsler.

For å forandre kartet kan du klikke på den grønne knappen med svart kryss for å zoome inn, på den grønne knappen med strek for å zoome ut, eller på de grønne pilene for å se tilstøtende kart.


METAR-TAF: